createdAt,value
2023-01-19T00:00:52.572Z,72.07
2023-01-19T00:03:19.327Z,72.09
2023-01-19T00:05:46.125Z,71.85
2023-01-19T00:08:16.451Z,71.47
2023-01-19T00:10:51.386Z,71.74
2023-01-19T00:13:18.169Z,71.57
2023-01-19T00:15:44.786Z,71.95
2023-01-19T00:18:11.435Z,72.03
2023-01-19T00:20:39.590Z,72.31
2023-01-19T00:23:08.298Z,72.18
2023-01-19T00:25:35.776Z,71.66
2023-01-19T00:28:02.436Z,71.99
2023-01-19T00:30:29.257Z,72.03
2023-01-19T00:32:56.151Z,71.72
2023-01-19T00:35:22.808Z,71.74
2023-01-19T00:37:49.530Z,71.40
2023-01-19T00:40:16.600Z,71.47
2023-01-19T00:42:48.593Z,71.59
2023-01-19T00:45:21.890Z,71.59
2023-01-19T00:47:54.702Z,71.63
2023-01-19T00:50:21.437Z,72.01
2023-01-19T00:52:48.031Z,71.57
2023-01-19T00:55:16.124Z,71.90
2023-01-19T00:57:43.056Z,71.76
2023-01-19T01:00:15.177Z,71.66
2023-01-19T01:02:43.364Z,71.76
2023-01-19T01:05:11.378Z,71.47
2023-01-19T01:07:41.910Z,71.22
2023-01-19T01:10:15.315Z,71.55
2023-01-19T01:12:55.933Z,71.37
2023-01-19T01:15:30.003Z,70.85
2023-01-19T01:17:56.689Z,70.83
2023-01-19T01:20:25.471Z,70.60
2023-01-19T01:22:53.729Z,70.31
2023-01-19T01:25:25.256Z,70.35
2023-01-19T01:27:51.920Z,70.46
2023-01-19T01:30:18.892Z,70.35
2023-01-19T01:32:45.628Z,70.32
2023-01-19T01:35:12.862Z,71.33
2023-01-19T01:37:40.322Z,71.84
2023-01-19T01:40:07.680Z,71.53
2023-01-19T01:42:34.927Z,71.55
2023-01-19T01:45:06.241Z,71.51
2023-01-19T01:47:55.646Z,71.42
2023-01-19T01:50:26.917Z,71.50
2023-01-19T01:53:07.979Z,71.44
2023-01-19T01:55:40.033Z,71.48
2023-01-19T01:58:08.895Z,71.65
2023-01-19T02:00:55.572Z,71.59
2023-01-19T02:03:25.569Z,71.39
2023-01-19T02:05:57.586Z,71.69
2023-01-19T02:09:05.524Z,71.78
2023-01-19T02:11:53.159Z,71.58
2023-01-19T02:14:19.884Z,71.73
2023-01-19T02:16:46.910Z,71.54
2023-01-19T02:19:19.588Z,71.59
2023-01-19T02:22:11.299Z,71.30
2023-01-19T02:24:38.498Z,71.40
2023-01-19T02:27:07.538Z,71.59
2023-01-19T02:29:35.207Z,71.71
2023-01-19T02:32:03.329Z,71.64
2023-01-19T02:34:30.631Z,71.80
2023-01-19T02:36:57.736Z,71.71
2023-01-19T02:39:36.411Z,71.53
2023-01-19T02:42:08.310Z,71.67
2023-01-19T02:44:37.055Z,71.66
2023-01-19T02:47:04.667Z,71.92
2023-01-19T02:49:31.610Z,71.87
2023-01-19T02:52:01.106Z,71.87
2023-01-19T02:54:33.527Z,72.08
2023-01-19T02:57:12.655Z,71.99
2023-01-19T03:00:04.211Z,72.20
2023-01-19T03:03:12.640Z,72.06
2023-01-19T03:06:03.543Z,72.02
2023-01-19T03:08:41.165Z,72.07
2023-01-19T03:11:13.046Z,71.94
2023-01-19T03:13:45.935Z,71.97
2023-01-19T03:16:29.547Z,71.79
2023-01-19T03:19:03.048Z,71.85
2023-01-19T03:21:31.125Z,71.72
2023-01-19T03:24:04.939Z,72.20
2023-01-19T03:26:39.171Z,72.44
2023-01-19T03:29:07.528Z,72.37
2023-01-19T03:31:35.170Z,72.42
2023-01-19T03:34:08.397Z,72.94
2023-01-19T03:36:40.574Z,73.01
2023-01-19T03:39:09.728Z,72.99
2023-01-19T03:41:39.470Z,72.87
2023-01-19T03:44:07.840Z,72.80
2023-01-19T03:46:34.985Z,72.64
2023-01-19T03:49:02.236Z,72.74
2023-01-19T03:51:29.705Z,72.42
2023-01-19T03:53:56.339Z,72.58
2023-01-19T03:56:25.227Z,72.64
2023-01-19T03:58:52.540Z,72.38
2023-01-19T04:01:23.404Z,72.45
2023-01-19T04:03:51.067Z,72.65
2023-01-19T04:06:19.364Z,72.62
2023-01-19T04:08:49.166Z,72.70
2023-01-19T04:11:16.337Z,72.49
2023-01-19T04:13:43.177Z,72.54
2023-01-19T04:16:11.109Z,72.38
2023-01-19T04:18:37.877Z,72.58
2023-01-19T04:21:07.665Z,73.17
2023-01-19T04:23:34.836Z,73.03
2023-01-19T04:28:48.359Z,72.81
2023-01-19T04:31:15.271Z,72.73
2023-01-19T04:33:42.015Z,72.94
2023-01-19T04:36:08.920Z,72.80
2023-01-19T04:38:35.960Z,73.00
2023-01-19T04:41:02.704Z,73.14
2023-01-19T04:43:29.231Z,73.36
2023-01-19T04:45:55.986Z,73.45
2023-01-19T04:48:22.752Z,73.75
2023-01-19T04:50:50.743Z,73.97
2023-01-19T04:53:18.659Z,73.82
2023-01-19T04:55:45.401Z,73.97
2023-01-19T04:58:12.448Z,73.75
2023-01-19T05:00:39.065Z,73.82
2023-01-19T05:03:06.157Z,73.85
2023-01-19T05:05:33.440Z,74.17
2023-01-19T05:08:00.727Z,74.00
2023-01-19T05:10:27.686Z,73.88
2023-01-19T05:12:54.585Z,74.08
2023-01-19T05:15:21.580Z,74.07
2023-01-19T05:17:48.419Z,74.14
2023-01-19T05:20:16.494Z,74.26
2023-01-19T05:22:48.661Z,74.52
2023-01-19T05:25:15.508Z,74.58
2023-01-19T05:27:42.253Z,74.35
2023-01-19T05:30:10.156Z,74.38
2023-01-19T05:32:37.201Z,74.75
2023-01-19T05:35:04.216Z,74.69
2023-01-19T05:37:32.799Z,74.77
2023-01-19T05:39:59.548Z,74.87
2023-01-19T05:42:26.273Z,74.94
2023-01-19T05:44:52.910Z,74.93
2023-01-19T05:47:19.498Z,74.84
2023-01-19T05:49:46.291Z,75.36
2023-01-19T05:52:13.038Z,75.41
2023-01-19T05:54:40.556Z,75.30
2023-01-19T05:57:07.851Z,75.65
2023-01-19T05:59:34.689Z,75.53
2023-01-19T06:02:01.232Z,75.52
2023-01-19T06:04:27.976Z,75.40
2023-01-19T06:06:54.642Z,75.32
2023-01-19T06:09:21.351Z,74.73
2023-01-19T06:11:48.454Z,75.05
2023-01-19T06:14:15.176Z,75.12
2023-01-19T06:16:41.754Z,75.16
2023-01-19T06:19:08.699Z,75.90
2023-01-19T06:21:35.511Z,75.61
2023-01-19T06:24:02.993Z,75.20
2023-01-19T06:26:29.800Z,75.46
2023-01-19T06:28:56.485Z,75.36
2023-01-19T06:31:23.353Z,75.87
2023-01-19T06:33:50.314Z,76.37
2023-01-19T06:36:17.094Z,75.86
2023-01-19T06:38:44.078Z,76.06
2023-01-19T06:41:10.839Z,76.34
2023-01-19T06:43:37.480Z,76.13
2023-01-19T06:46:05.012Z,76.13
2023-01-19T06:48:31.722Z,76.40
2023-01-19T06:50:59.765Z,76.36
2023-01-19T06:53:28.340Z,75.81
2023-01-19T06:56:01.951Z,75.83
2023-01-19T06:58:30.719Z,76.39
2023-01-19T07:01:07.322Z,76.01
2023-01-19T07:03:38.105Z,76.33
2023-01-19T07:06:06.850Z,76.12
2023-01-19T07:08:34.977Z,76.35
2023-01-19T07:11:26.759Z,76.68
2023-01-19T07:13:57.227Z,76.99
2023-01-19T07:16:24.193Z,77.53
2023-01-19T07:18:51.106Z,76.83
2023-01-19T07:21:18.353Z,76.70
2023-01-19T07:23:45.041Z,76.41
2023-01-19T07:26:11.640Z,76.20
2023-01-19T07:28:38.350Z,76.60
2023-01-19T07:31:05.288Z,76.10
2023-01-19T07:33:31.969Z,76.13
2023-01-19T07:35:59.030Z,75.55
2023-01-19T07:38:25.640Z,75.07
2023-01-19T07:40:52.404Z,75.37
2023-01-19T07:43:19.593Z,75.28
2023-01-19T07:45:46.310Z,75.78
2023-01-19T07:48:13.030Z,75.72
2023-01-19T07:50:39.990Z,76.07
2023-01-19T07:53:08.553Z,76.28
2023-01-19T07:55:35.938Z,76.02
2023-01-19T07:58:06.758Z,76.33
2023-01-19T08:00:35.448Z,76.27
2023-01-19T08:03:04.408Z,76.28
2023-01-19T08:05:32.704Z,76.15
2023-01-19T08:08:00.450Z,76.27
2023-01-19T08:10:28.836Z,76.05
2023-01-19T08:12:56.661Z,76.02
2023-01-19T08:15:25.008Z,76.35
2023-01-19T08:18:05.706Z,76.26
2023-01-19T08:20:32.853Z,75.62
2023-01-19T08:23:03.221Z,75.56
2023-01-19T08:25:35.244Z,75.74
2023-01-19T08:28:03.243Z,75.61
2023-01-19T08:30:30.562Z,75.54
2023-01-19T08:33:04.224Z,75.57
2023-01-19T08:35:32.373Z,75.16
2023-01-19T08:38:01.544Z,75.34
2023-01-19T08:40:29.824Z,75.31
2023-01-19T08:43:07.931Z,75.35
2023-01-19T08:45:36.474Z,75.60
2023-01-19T08:48:04.419Z,75.12
2023-01-19T08:50:32.849Z,75.01
2023-01-19T08:53:06.506Z,74.53
2023-01-19T08:55:35.517Z,75.15
2023-01-19T08:58:06.225Z,75.69
2023-01-19T09:00:38.042Z,75.30
2023-01-19T09:03:06.616Z,74.97
2023-01-19T09:05:37.483Z,75.31
2023-01-19T09:08:13.428Z,75.16
2023-01-19T09:10:45.857Z,74.88
2023-01-19T09:13:13.832Z,74.98
2023-01-19T09:15:41.807Z,74.76
2023-01-19T09:18:13.664Z,75.13
2023-01-19T09:20:42.782Z,74.97
2023-01-19T09:23:15.499Z,75.04
2023-01-19T09:25:44.349Z,75.05
2023-01-19T09:28:14.497Z,74.97
2023-01-19T09:30:43.055Z,75.45
2023-01-19T09:33:12.140Z,75.38
2023-01-19T09:35:39.437Z,75.10
2023-01-19T09:38:07.706Z,75.20
2023-01-19T09:40:56.656Z,74.84
2023-01-19T09:43:38.721Z,74.94
2023-01-19T09:46:38.872Z,75.09
2023-01-19T09:49:16.548Z,75.06
2023-01-19T09:51:49.093Z,74.96
2023-01-19T09:54:19.855Z,74.77
2023-01-19T09:56:51.334Z,74.82
2023-01-19T09:59:25.209Z,74.50
2023-01-19T10:02:21.035Z,74.27
2023-01-19T10:04:50.749Z,73.89
2023-01-19T10:07:31.899Z,73.75
2023-01-19T10:10:19.047Z,73.89
2023-01-19T10:13:10.257Z,73.73
2023-01-19T10:16:02.276Z,73.62
2023-01-19T10:18:47.546Z,73.69
2023-01-19T10:21:41.008Z,73.62
2023-01-19T10:24:30.364Z,74.02
2023-01-19T10:26:57.563Z,74.92
2023-01-19T10:29:28.363Z,75.10
2023-01-19T10:32:15.026Z,75.00
2023-01-19T10:34:41.800Z,75.15
2023-01-19T10:37:17.600Z,75.32
2023-01-19T10:39:46.169Z,75.20
2023-01-19T10:42:17.114Z,75.43
2023-01-19T10:44:45.908Z,75.81
2023-01-19T10:47:20.172Z,75.80
2023-01-19T10:49:48.814Z,75.92
2023-01-19T10:52:36.768Z,75.68
2023-01-19T10:55:07.137Z,75.65
2023-01-19T10:57:43.539Z,75.50
2023-01-19T11:00:40.489Z,75.64
2023-01-19T11:03:22.551Z,75.88
2023-01-19T11:05:50.362Z,76.30
2023-01-19T11:08:29.917Z,76.26
2023-01-19T11:11:03.805Z,76.11
2023-01-19T11:13:31.997Z,76.06
2023-01-19T11:16:05.378Z,75.94
2023-01-19T11:18:35.932Z,75.93
2023-01-19T11:21:07.062Z,75.35
2023-01-19T11:23:43.051Z,75.42
2023-01-19T11:26:18.871Z,75.50
2023-01-19T11:33:25.410Z,75.26
2023-01-19T11:36:02.986Z,74.90
2023-01-19T11:38:29.693Z,74.49
2023-01-19T11:40:59.221Z,74.50
2023-01-19T11:43:43.349Z,74.25
2023-01-19T11:46:15.541Z,74.19
2023-01-19T11:53:24.411Z,74.29
2023-01-19T11:55:57.765Z,74.27
2023-01-19T12:02:47.762Z,74.05
2023-01-19T12:05:19.322Z,73.73
2023-01-19T12:07:49.312Z,73.67
2023-01-19T12:10:32.749Z,73.59
2023-01-19T12:13:00.387Z,73.18
2023-01-19T12:15:35.139Z,72.72
2023-01-19T12:18:05.336Z,73.04
2023-01-19T12:20:46.810Z,72.97
2023-01-19T12:23:32.614Z,72.28
2023-01-19T12:30:52.347Z,72.58
2023-01-19T12:33:21.821Z,72.59
2023-01-19T12:35:57.929Z,72.54
2023-01-19T12:38:34.855Z,72.58
2023-01-19T12:41:35.412Z,71.92
2023-01-19T12:44:16.153Z,71.31
2023-01-19T12:46:46.153Z,71.83
2023-01-19T12:49:37.739Z,71.32
2023-01-19T12:52:34.075Z,70.73
2023-01-19T12:55:13.499Z,71.13
2023-01-19T13:02:20.365Z,70.74
2023-01-19T13:05:24.961Z,70.38
2023-01-19T13:08:08.123Z,69.96
2023-01-19T13:10:55.133Z,70.19
2023-01-19T13:17:53.425Z,69.21
2023-01-19T13:20:27.585Z,69.24
2023-01-19T13:23:19.937Z,68.86
2023-01-19T13:25:53.184Z,68.50
2023-01-19T13:28:29.066Z,68.77
2023-01-19T13:30:59.612Z,68.07
2023-01-19T13:37:48.220Z,68.82
2023-01-19T13:44:32.866Z,68.79
2023-01-19T13:47:03.401Z,68.71
2023-01-19T13:49:40.786Z,69.21
2023-01-19T13:52:17.145Z,68.87
2023-01-19T13:55:05.652Z,68.20
2023-01-19T13:57:40.850Z,68.52
2023-01-19T14:00:12.083Z,69.07
2023-01-19T14:02:40.024Z,69.07
2023-01-19T14:05:52.452Z,68.30
2023-01-19T14:12:48.156Z,67.96
2023-01-19T14:15:21.427Z,68.22
2023-01-19T14:18:09.446Z,68.43
2023-01-19T14:20:38.795Z,68.24
2023-01-19T14:23:26.913Z,68.10
2023-01-19T14:25:53.541Z,67.78
2023-01-19T14:28:28.001Z,67.63
2023-01-19T14:31:00.171Z,68.11
2023-01-19T14:37:47.645Z,67.92
2023-01-19T14:40:20.454Z,67.61
2023-01-19T14:42:52.990Z,67.08
2023-01-19T14:45:38.848Z,67.39
2023-01-19T14:48:17.982Z,67.27
2023-01-19T14:50:57.673Z,67.79
2023-01-19T14:53:31.833Z,67.74
2023-01-19T14:56:03.220Z,67.55
2023-01-19T14:58:33.923Z,68.33
2023-01-19T15:01:02.747Z,68.26
2023-01-19T15:03:48.762Z,68.51
2023-01-19T15:06:20.819Z,68.05
2023-01-19T15:08:50.233Z,68.22
2023-01-19T15:11:35.491Z,68.44
2023-01-19T15:14:02.794Z,68.46
2023-01-19T15:16:33.197Z,67.87
2023-01-19T15:19:00.527Z,68.20
2023-01-19T15:21:27.325Z,68.44
2023-01-19T15:23:54.904Z,68.62
2023-01-19T15:26:24.312Z,68.47
2023-01-19T15:28:51.576Z,68.12
2023-01-19T15:31:21.134Z,68.45
2023-01-19T15:33:47.926Z,68.79
2023-01-19T15:36:18.169Z,68.77
2023-01-19T15:38:46.053Z,69.36
2023-01-19T15:41:14.071Z,68.68
2023-01-19T15:43:40.899Z,68.54
2023-01-19T15:46:07.987Z,68.70
2023-01-19T15:48:34.808Z,68.18
2023-01-19T15:51:01.550Z,68.85
2023-01-19T15:53:28.537Z,68.51
2023-01-19T15:55:58.093Z,68.64
2023-01-19T15:58:25.112Z,68.47
2023-01-19T16:00:56.988Z,68.89
2023-01-19T16:03:25.025Z,68.59
2023-01-19T16:05:52.141Z,68.55
2023-01-19T16:08:19.117Z,68.65
2023-01-19T16:10:45.795Z,67.64
2023-01-19T16:13:12.698Z,67.89
2023-01-19T16:15:40.204Z,68.11
2023-01-19T16:18:07.101Z,68.63
2023-01-19T16:20:34.063Z,67.67
2023-01-19T16:23:14.450Z,67.24
2023-01-19T16:25:42.679Z,67.60
2023-01-19T16:28:09.410Z,67.23
2023-01-19T16:30:36.173Z,67.37
2023-01-19T16:33:02.765Z,67.75
2023-01-19T16:35:29.404Z,67.56
2023-01-19T16:37:56.041Z,67.95
2023-01-19T16:40:22.708Z,68.42
2023-01-19T16:42:49.338Z,67.91
2023-01-19T16:45:16.165Z,67.49
2023-01-19T16:47:43.630Z,67.33
2023-01-19T16:50:11.942Z,67.59
2023-01-19T16:52:38.902Z,67.61
2023-01-19T16:55:09.524Z,67.59
2023-01-19T16:57:39.043Z,67.67
2023-01-19T17:00:07.735Z,67.97
2023-01-19T17:02:34.632Z,67.53
2023-01-19T17:09:11.941Z,67.38
2023-01-19T17:11:40.387Z,67.42
2023-01-19T17:14:20.413Z,67.74
2023-01-19T17:16:48.214Z,67.35
2023-01-19T17:19:18.132Z,67.60
2023-01-19T17:21:46.377Z,67.72
2023-01-19T17:24:13.261Z,67.54
2023-01-19T17:26:41.057Z,67.47
2023-01-19T17:29:09.769Z,67.48
2023-01-19T17:35:50.884Z,67.10
2023-01-19T17:38:17.682Z,67.51
2023-01-19T17:40:44.259Z,67.60
2023-01-19T17:43:10.971Z,67.07
2023-01-19T17:45:37.837Z,67.37
2023-01-19T17:48:05.230Z,67.25
2023-01-19T17:54:38.756Z,68.08
2023-01-19T17:57:05.280Z,68.31
2023-01-19T17:59:32.713Z,67.68
2023-01-19T18:01:59.394Z,67.97
2023-01-19T18:04:26.002Z,67.73
2023-01-19T18:06:53.080Z,67.99
2023-01-19T18:09:19.712Z,68.21
2023-01-19T18:11:46.384Z,68.27
2023-01-19T18:14:13.094Z,68.39
2023-01-19T18:16:39.681Z,68.63
2023-01-19T18:19:06.515Z,68.03
2023-01-19T18:21:33.239Z,67.67
2023-01-19T18:24:01.901Z,68.07
2023-01-19T18:26:30.399Z,67.68
2023-01-19T18:28:58.015Z,67.91
2023-01-19T18:31:26.119Z,68.11
2023-01-19T18:38:06.669Z,68.19
2023-01-19T18:40:33.302Z,67.85
2023-01-19T18:42:59.956Z,67.88
2023-01-19T18:45:26.623Z,67.77
2023-01-19T18:47:53.307Z,67.99
2023-01-19T18:50:19.911Z,68.04
2023-01-19T18:52:47.772Z,67.83
2023-01-19T18:55:14.769Z,67.78
2023-01-19T18:57:41.425Z,68.13
2023-01-19T19:00:08.726Z,67.93
2023-01-19T19:02:35.418Z,67.98
2023-01-19T19:05:02.956Z,67.94
2023-01-19T19:07:29.782Z,68.11
2023-01-19T19:09:56.320Z,68.00
2023-01-19T19:12:22.985Z,68.03
2023-01-19T19:14:51.424Z,67.84
2023-01-19T19:17:18.105Z,68.14
2023-01-19T19:19:44.771Z,68.35
2023-01-19T19:22:11.423Z,68.43
2023-01-19T19:24:38.165Z,68.46
2023-01-19T19:27:05.683Z,68.09
2023-01-19T19:29:33.707Z,68.02
2023-01-19T19:32:00.336Z,67.99
2023-01-19T19:34:27.917Z,68.02
2023-01-19T19:36:54.593Z,68.03
2023-01-19T19:43:40.962Z,68.24
2023-01-19T19:46:12.888Z,68.81
2023-01-19T19:48:40.368Z,68.39
2023-01-19T19:51:18.606Z,68.37
2023-01-19T19:53:49.046Z,68.17
2023-01-19T19:56:19.921Z,67.88
2023-01-19T19:58:47.526Z,67.93
2023-01-19T20:01:24.676Z,68.18
2023-01-19T20:03:53.559Z,68.36
2023-01-19T20:06:23.863Z,68.29
2023-01-19T20:08:56.148Z,68.56
2023-01-19T20:11:27.458Z,68.52
2023-01-19T20:13:54.999Z,68.29
2023-01-19T20:16:23.326Z,68.33
2023-01-19T20:18:54.095Z,68.34
2023-01-19T20:21:25.763Z,68.18
2023-01-19T20:23:54.157Z,68.46
2023-01-19T20:26:25.227Z,68.76
2023-01-19T20:28:52.994Z,68.93
2023-01-19T20:31:21.739Z,68.87
2023-01-19T20:33:50.352Z,69.06
2023-01-19T20:36:17.731Z,69.36
2023-01-19T20:38:45.025Z,69.60
2023-01-19T20:41:13.223Z,69.81
2023-01-19T20:43:40.343Z,69.57
2023-01-19T20:46:07.905Z,69.44
2023-01-19T20:48:35.056Z,69.19
2023-01-19T20:51:05.120Z,69.25
2023-01-19T20:53:32.507Z,69.24
2023-01-19T20:56:04.206Z,69.19
2023-01-19T20:58:32.688Z,69.08
2023-01-19T21:00:59.609Z,69.32
2023-01-19T21:03:26.357Z,69.24
2023-01-19T21:05:52.973Z,69.29
2023-01-19T21:08:19.688Z,69.15
2023-01-19T21:10:46.390Z,69.08
2023-01-19T21:13:13.063Z,69.27
2023-01-19T21:15:39.740Z,69.26
2023-01-19T21:18:06.368Z,69.05
2023-01-19T21:20:33.320Z,69.35
2023-01-19T21:23:00.126Z,69.54
2023-01-19T21:25:26.766Z,69.80
2023-01-19T21:27:53.392Z,69.48
2023-01-19T21:30:20.133Z,69.25
2023-01-19T21:32:46.815Z,69.31
2023-01-19T21:35:13.669Z,69.40
2023-01-19T21:37:40.734Z,69.18
2023-01-19T21:40:07.688Z,69.15
2023-01-19T21:42:34.339Z,68.92
2023-01-19T21:45:01.023Z,69.09
2023-01-19T21:47:27.650Z,69.17
2023-01-19T21:49:54.310Z,69.18
2023-01-19T22:01:04.575Z,69.05
2023-01-19T22:03:31.842Z,69.57
2023-01-19T22:06:05.022Z,69.51
2023-01-19T22:08:32.152Z,70.28
2023-01-19T22:11:12.093Z,69.67
2023-01-19T22:13:39.244Z,69.36
2023-01-19T22:16:10.433Z,69.53
2023-01-19T22:18:38.690Z,69.38
2023-01-19T22:21:09.810Z,69.10
2023-01-19T22:23:37.008Z,69.04
2023-01-19T22:26:04.696Z,69.00
2023-01-19T22:28:31.923Z,68.93
2023-01-19T22:35:25.927Z,69.15
2023-01-19T22:37:52.595Z,69.08
2023-01-19T22:40:19.309Z,69.08
2023-01-19T22:42:49.243Z,69.04
2023-01-19T22:45:16.281Z,69.18
2023-01-19T22:47:42.981Z,68.85
2023-01-19T22:50:10.208Z,68.90
2023-01-19T22:52:36.798Z,68.65
2023-01-19T22:55:03.668Z,68.80
2023-01-19T22:57:35.765Z,68.98
2023-01-19T23:00:08.864Z,69.17
2023-01-19T23:02:35.642Z,69.46
2023-01-19T23:05:02.266Z,69.41
2023-01-19T23:07:28.872Z,69.52
2023-01-19T23:09:55.478Z,69.42
2023-01-19T23:12:22.155Z,69.47
2023-01-19T23:14:48.881Z,69.30
2023-01-19T23:17:15.462Z,69.63
2023-01-19T23:19:42.028Z,69.71
2023-01-19T23:22:08.701Z,69.44
2023-01-19T23:24:35.406Z,68.92
2023-01-19T23:27:02.466Z,69.39
2023-01-19T23:29:29.133Z,69.50
2023-01-19T23:31:56.395Z,69.27
2023-01-19T23:34:23.122Z,69.40
2023-01-19T23:36:49.650Z,69.05
2023-01-19T23:39:19.716Z,69.36
2023-01-19T23:41:46.715Z,69.38
2023-01-19T23:44:13.798Z,69.47
2023-01-19T23:46:40.761Z,69.67
2023-01-19T23:49:07.411Z,69.31
2023-01-19T23:51:34.189Z,69.19
2023-01-19T23:54:01.141Z,68.85
2023-01-19T23:56:30.457Z,68.81
2023-01-19T23:59:03.491Z,68.54
